Time;durP1;ratioP1;P1;durP2;ratioP2;P2;SDS_P1;SDS_P2;PMS_P1;PMS_P2;Temp;Humidity;BMP_temperature;BMP_pressure;BME280_temperature;BME280_humidity;BME280_pressure;Samples;Min_cycle;Max_cycle;Signal;HPM_P1;HPM_P2
2022/11/02 00:00:12;;;;;;;;;;;;;;;;;;4970928;28;19925;-59
2022/11/02 00:02:37;;;;;;;;;;;;;;;;;;4962992;28;19971;-58
2022/11/02 00:05:03;;;;;;;;;;;;;;;;;;4963412;28;19923;-57
2022/11/02 00:07:28;;;;;;;;;;;;;;;;;;4965703;28;20296;-57
2022/11/02 00:09:53;;;;;;;;;;;;;;;;;;4968778;28;19926;-57
2022/11/02 00:12:19;;;;;;;;;;;;;;;;;;4964843;28;20345;-57
2022/11/02 00:14:44;;;;;;;;;;;;;;;;;;4970260;28;19929;-58
2022/11/02 00:17:09;;;;;;;;;;;;;;;;;;4959369;28;19926;-57
2022/11/02 00:19:35;;;;;;;;;;;;;;;;;;4968631;28;19929;-58
2022/11/02 00:22:01;;;;;;;;;;;;;;;;;;4964320;28;19918;-58
2022/11/02 00:24:27;;;;;;;;;;;;;;;;;;4964341;28;19922;-58
2022/11/02 00:26:54;;;;;;;;;;;;;;;;;;4970883;28;19961;-58
2022/11/02 00:29:20;;;;;;;;;;;;;;;;;;4968727;28;19918;-58
2022/11/02 00:31:45;;;;;;;;;;;;;;;;;;4965813;28;20021;-58
2022/11/02 00:34:11;;;;;;;;;;;;;;;;;;4965822;28;19929;-58
2022/11/02 00:36:36;;;;;;;;;;;;;;;;;;4971687;28;19976;-58
2022/11/02 00:39:01;;;;;;;;;;;;;;;;;;4964041;28;19924;-58
2022/11/02 00:41:26;;;;;;;;;;;;;;;;;;4973255;28;19957;-58
2022/11/02 00:43:52;;;;;;;;;;;;;;;;;;4969953;28;19926;-58
2022/11/02 00:46:17;;;;;;;;;;;;;;;;;;4971231;28;19926;-57
2022/11/02 00:48:42;;;;;;;;;;;;;;;;;;4969063;28;19932;-58
2022/11/02 00:51:07;;;;;;;;;;;;;;;;;;4972937;28;19918;-58
2022/11/02 00:53:33;;;;;;;;;;;;;;;;;;4965144;28;20017;-57
2022/11/02 00:55:58;;;;;;;;;;;;;;;;;;4968349;28;20303;-57
2022/11/02 00:58:23;;;;;;;;;;;;;;;;;;4968652;28;19932;-58
2022/11/02 01:00:48;;;;;;;;;;;;;;;;;;4973970;28;19921;-58
2022/11/02 01:03:14;;;;;;;;;;;;;;;;;;4971945;28;20340;-58
2022/11/02 01:05:39;;;;;;;;;;;;;;;;;;4969037;28;19926;-59
2022/11/02 01:08:04;;;;;;;;;;;;;;;;;;4963300;28;19922;-58
2022/11/02 01:10:29;;;;;;;;;;;;;;;;;;4972756;28;19918;-58
2022/11/02 01:12:55;;;;;;;;;;;;;;;;;;4967678;28;20338;-58
2022/11/02 01:15:20;;;;;;;;;;;;;;;;;;4965690;28;20384;-58
2022/11/02 01:17:45;;;;;;;;;;;;;;;;;;4965236;28;19918;-59
2022/11/02 01:20:11;;;;;;;;;;;;;;;;;;4966675;28;19937;-58
2022/11/02 01:22:36;;;;;;;;;;;;;;;;;;4963835;28;19922;-59
2022/11/02 01:25:01;;;;;;;;;;;;;;;;;;4961089;28;19930;-58
2022/11/02 01:27:27;;;;;;;;;;;;;;;;;;4963675;28;20351;-58
2022/11/02 01:29:52;;;;;;;;;;;;;;;;;;4970727;28;20345;-58
2022/11/02 01:32:17;;;;;;;;;;;;;;;;;;4970432;28;19918;-59
2022/11/02 01:34:42;;;;;;;;;;;;;;;;;;4962130;28;20288;-58
2022/11/02 01:37:09;;;;;;;;;;;;;;;;;;4966759;28;19918;-59
2022/11/02 01:39:34;;;;;;;;;;;;;;;;;;4968141;28;20290;-59
2022/11/02 01:41:59;;;;;;;;;;;;;;;;;;4965074;28;19918;-58
2022/11/02 01:44:29;;;;;;;;;;;;;;;;;;4966451;28;19922;-58
2022/11/02 01:46:56;;;;;;;;;;;;;;;;;;4966666;28;19937;-58
2022/11/02 01:49:22;;;;;;;;;;;;;;;;;;4962560;28;20002;-58
2022/11/02 01:51:54;;;;;;;;;;;;;;;;;;4966253;28;20005;-59
2022/11/02 01:54:21;;;;;;;;;;;;;;;;;;4963099;28;20384;-59
2022/11/02 01:56:49;;;;;;;;;;;;;;;;;;4970145;28;19989;-58
2022/11/02 01:59:17;;;;;;;;;;;;;;;;;;4965232;28;20047;-58
2022/11/02 02:01:42;;;;;;;;;;;;;;;;;;4964058;28;19922;-58
2022/11/02 02:04:09;;;;;;;;;;;;;;;;;;4970208;28;20023;-58
2022/11/02 02:06:35;;;;;;;;;;;;;;;;;;4960765;28;20017;-58
2022/11/02 02:09:02;;;;;;;;;;;;;;;;;;4972460;28;20068;-58
2022/11/02 02:11:31;;;;;;;;;;;;;;;;;;4965284;28;20375;-58
2022/11/02 02:14:02;;;;;;;;;;;;;;;;;;4964363;28;19919;-59
2022/11/02 02:16:35;;;;;;;;;;;;;;;;;;4961441;28;19925;-58
2022/11/02 02:19:05;;;;;;;;;;;;;;;;;;4966430;28;19924;-59
2022/11/02 02:21:41;;;;;;;;;;;;;;;;;;4967560;28;19957;-58
2022/11/02 02:24:25;;;;;;;;;;;;;;;;;;4963477;28;19930;-58
2022/11/02 02:26:50;;;;;;;;;;;;;;;;;;4966174;28;20571;-58
2022/11/02 02:29:27;;;;;;;;;;;;;;;;;;4967839;28;19918;-58
2022/11/02 02:32:00;;;;;;;;;;;;;;;;;;4971284;28;19991;-58
2022/11/02 02:34:31;;;;;;;;;;;;;;;;;;4968905;28;19922;-58
2022/11/02 02:37:05;;;;;;;;;;;;;;;;;;4967303;28;20067;-59
2022/11/02 02:39:36;;;;;;;;;;;;;;;;;;4974589;28;20012;-58
2022/11/02 02:42:22;;;;;;;;;;;;;;;;;;4963535;28;19925;-58
2022/11/02 02:45:14;;;;;;;;;;;;;;;;;;4966337;28;19929;-58
2022/11/02 02:47:43;;;;;;;;;;;;;;;;;;4995855;28;20059;-58
2022/11/02 02:50:13;;;;;;;;;;;;;;;;;;4971568;28;19939;-58
2022/11/02 02:52:39;;;;;;;;;;;;;;;;;;4967107;28;20045;-57
2022/11/02 02:55:06;;;;;;;;;;;;;;;;;;4962261;28;20020;-59
2022/11/02 02:57:33;;;;;;;;;;;;;;;;;;4968172;28;19987;-58
2022/11/02 02:59:59;;;;;;;;;;;;;;;;;;4959871;28;19918;-58
2022/11/02 03:02:26;;;;;;;;;;;;;;;;;;4963367;28;19929;-58
2022/11/02 03:04:51;;;;;;;;;;;;;;;;;;4964921;28;19926;-59
2022/11/02 03:07:21;;;;;;;;;;;;;;;;;;4964722;28;19969;-59
2022/11/02 03:09:55;;;;;;;;;;;;;;;;;;4965847;28;19922;-59
2022/11/02 03:12:29;;;;;;;;;;;;;;;;;;4965576;28;19961;-58
2022/11/02 03:15:21;;;;;;;;;;;;;;;;;;4958305;28;20364;-58
2022/11/02 03:18:06;;;;;;;;;;;;;;;;;;5000330;28;19921;-58
2022/11/02 03:20:41;;;;;;;;;;;;;;;;;;4996992;28;19922;-58
2022/11/02 03:23:25;;;;;;;;;;;;;;;;;;4958009;28;19934;-58
2022/11/02 03:25:57;;;;;;;;;;;;;;;;;;4961121;28;20002;-59
2022/11/02 03:28:23;;;;;;;;;;;;;;;;;;4965000;28;19940;-58
2022/11/02 03:30:53;;;;;;;;;;;;;;;;;;4968896;28;20346;-58
2022/11/02 03:33:18;;;;;;;;;;;;;;;;;;4954768;28;19926;-58
2022/11/02 03:35:46;;;;;;;;;;;;;;;;;;4964891;28;20473;-59
2022/11/02 03:38:11;;;;;;;;;;;;;;;;;;4965424;28;19917;-57
2022/11/02 03:40:39;;;;;;;;;;;;;;;;;;4964091;28;20028;-57
2022/11/02 03:43:05;;;;;;;;;;;;;;;;;;4965104;28;20105;-58
2022/11/02 03:45:34;;;;;;;;;;;;;;;;;;4963677;28;20509;-58
2022/11/02 03:48:01;;;;;;;;;;;;;;;;;;4965738;28;19933;-58
2022/11/02 03:50:26;;;;;;;;;;;;;;;;;;4967080;28;19968;-58
2022/11/02 03:52:57;;;;;;;;;;;;;;;;;;4964510;28;20385;-58
2022/11/02 03:55:32;;;;;;;;;;;;;;;;;;4970041;28;19925;-58
2022/11/02 03:57:58;;;;;;;;;;;;;;;;;;4963756;28;19922;-58
2022/11/02 04:00:24;;;;;;;;;;;;;;;;;;4965034;28;20011;-58
2022/11/02 04:02:52;;;;;;;;;;;;;;;;;;4962628;28;19924;-59
2022/11/02 04:05:17;;;;;;;;;;;;;;;;;;4960592;28;19922;-58
2022/11/02 04:10:28;;;;;;;;;;;;;;;;;;4957563;28;19925;-58
2022/11/02 04:15:38;;;;;;;;;;;;;;;;;;4966824;28;20352;-59
2022/11/02 04:20:51;;;;;;;;;;;;;;;;;;4958310;28;19925;-58
2022/11/02 04:26:00;;;;;;;;;;;;;;;;;;4960923;28;19933;-59
2022/11/02 04:28:25;;;;;;;;;;;;;;;;;;4961541;28;19926;-58
2022/11/02 04:30:51;;;;;;;;;;;;;;;;;;4970267;28;19957;-58
2022/11/02 04:33:34;;;;;;;;;;;;;;;;;;4973021;28;19961;-58
2022/11/02 04:36:00;;;;;;;;;;;;;;;;;;4965740;28;20001;-58
2022/11/02 04:38:41;;;;;;;;;;;;;;;;;;4964301;28;19918;-59
2022/11/02 04:43:50;;;;;;;;;;;;;;;;;;4963411;28;19925;-57
2022/11/02 04:46:16;;;;;;;;;;;;;;;;;;4963754;28;19930;-58
2022/11/02 04:48:41;;;;;;;;;;;;;;;;;;4978959;28;20010;-58
2022/11/02 04:51:06;;;;;;;;;;;;;;;;;;4962846;28;20403;-59
2022/11/02 04:53:31;;;;;;;;;;;;;;;;;;4959986;28;19971;-58
2022/11/02 04:55:56;;;;;;;;;;;;;;;;;;4966423;28;19918;-58
2022/11/02 04:58:22;;;;;;;;;;;;;;;;;;4967885;28;20383;-58
2022/11/02 05:00:47;;;;;;;;;;;;;;;;;;4963511;28;19967;-57
2022/11/02 05:03:12;;;;;;;;;;;;;;;;;;4961463;28;19954;-59
2022/11/02 05:05:38;;;;;;;;;;;;;;;;;;4962327;28;20421;-60
2022/11/02 05:08:03;;;;;;;;;;;;;;;;;;4963820;28;19922;-60
2022/11/02 05:10:29;;;;;;;;;;;;;;;;;;4960945;28;20009;-60
2022/11/02 05:12:57;;;;;;;;;;;;;;;;;;4955889;28;19922;-60
2022/11/02 05:15:23;;;;;;;;;;;;;;;;;;4959104;28;19971;-60
2022/11/02 05:17:48;;;;;;;;;;;;;;;;;;4961739;28;19914;-60
2022/11/02 05:20:13;;;;;;;;;;;;;;;;;;4959489;28;19925;-60
2022/11/02 05:22:41;;;;;;;;;;;;;;;;;;4958053;28;20001;-60
2022/11/02 05:25:10;;;;;;;;;;;;;;;;;;4961807;28;20000;-60
2022/11/02 05:27:35;;;;;;;;;;;;;;;;;;4958771;28;19923;-60
2022/11/02 05:30:01;;;;;;;;;;;;;;;;;;4960132;28;19991;-60
2022/11/02 05:32:26;;;;;;;;;;;;;;;;;;4963181;28;20494;-60
2022/11/02 05:34:51;;;;;;;;;;;;;;;;;;4969931;28;19918;-61
2022/11/02 05:37:17;;;;;;;;;;;;;;;;;;4981680;28;19986;-60
2022/11/02 05:39:42;;;;;;;;;;;;;;;;;;4989874;28;19914;-62
2022/11/02 05:42:07;;;;;;;;;;;;;;;;;;4968583;28;20288;-61
2022/11/02 05:44:33;;;;;;;;;;;;;;;;;;4986439;28;19923;-60
2022/11/02 05:46:58;;;;;;;;;;;;;;;;;;4984235;28;19926;-60
2022/11/02 05:49:23;;;;;;;;;;;;;;;;;;4964385;28;20029;-61
2022/11/02 05:51:48;;;;;;;;;;;;;;;;;;4965562;28;19930;-60
2022/11/02 05:54:14;;;;;;;;;;;;;;;;;;4960693;28;20031;-62
2022/11/02 05:56:39;;;;;;;;;;;;;;;;;;4961894;28;20573;-61
2022/11/02 05:59:04;;;;;;;;;;;;;;;;;;4967059;28;19922;-61
2022/11/02 06:01:30;;;;;;;;;;;;;;;;;;4963834;28;19919;-61
2022/11/02 06:03:55;;;;;;;;;;;;;;;;;;4961692;28;19957;-61
2022/11/02 06:06:20;;;;;;;;;;;;;;;;;;4959474;28;19922;-61
2022/11/02 06:08:46;;;;;;;;;;;;;;;;;;4967376;28;19925;-60
2022/11/02 06:11:11;;;;;;;;;;;;;;;;;;4965510;28;19980;-61
2022/11/02 06:13:37;;;;;;;;;;;;;;;;;;4969608;28;19925;-61
2022/11/02 06:16:03;;;;;;;;;;;;;;;;;;4972886;28;19929;-60
2022/11/02 06:18:30;;;;;;;;;;;;;;;;;;4973439;28;19918;-60
2022/11/02 06:20:59;;;;;;;;;;;;;;;;;;4962597;28;19921;-61
2022/11/02 06:23:25;;;;;;;;;;;;;;;;;;4973279;28;19925;-61
2022/11/02 06:25:51;;;;;;;;;;;;;;;;;;4960132;28;19980;-60
2022/11/02 06:28:17;;;;;;;;;;;;;;;;;;4983722;28;19916;-61
2022/11/02 06:30:42;;;;;;;;;;;;;;;;;;4978067;28;19918;-60
2022/11/02 06:33:07;;;;;;;;;;;;;;;;;;4970873;28;19922;-59
2022/11/02 06:35:33;;;;;;;;;;;;;;;;;;4969310;28;20051;-60
2022/11/02 06:37:58;;;;;;;;;;;;;;;;;;4975965;28;19965;-60
2022/11/02 06:40:23;;;;;;;;;;;;;;;;;;4969523;28;19922;-60
2022/11/02 06:42:53;;;;;;;;;;;;;;;;;;4972014;28;19919;-60
2022/11/02 06:45:18;;;;;;;;;;;;;;;;;;4967198;28;19929;-61
2022/11/02 06:47:47;;;;;;;;;;;;;;;;;;4966951;28;19922;-61
2022/11/02 06:50:12;;;;;;;;;;;;;;;;;;4967003;28;19918;-60
2022/11/02 06:52:41;;;;;;;;;;;;;;;;;;4969289;28;19964;-59
2022/11/02 06:55:06;;;;;;;;;;;;;;;;;;4964464;28;19919;-60
2022/11/02 06:57:35;;;;;;;;;;;;;;;;;;4970721;28;20299;-60
2022/11/02 07:00:03;;;;;;;;;;;;;;;;;;4970019;28;19926;-60
2022/11/02 07:02:29;;;;;;;;;;;;;;;;;;4969649;28;20338;-59
2022/11/02 07:04:54;;;;;;;;;;;;;;;;;;4964728;28;19926;-59
2022/11/02 07:07:19;;;;;;;;;;;;;;;;;;4965597;28;19918;-59
2022/11/02 07:09:45;;;;;;;;;;;;;;;;;;4969946;28;19918;-60
2022/11/02 07:12:10;;;;;;;;;;;;;;;;;;4966800;28;19953;-59
2022/11/02 07:14:35;;;;;;;;;;;;;;;;;;4980074;28;19987;-60
2022/11/02 07:17:00;;;;;;;;;;;;;;;;;;4968070;28;20001;-60
2022/11/02 07:19:26;;;;;;;;;;;;;;;;;;4968061;28;19921;-58
2022/11/02 07:21:51;;;;;;;;;;;;;;;;;;4974928;28;20291;-61
2022/11/02 07:24:16;;;;;;;;;;;;;;;;;;4979625;28;19913;-60
2022/11/02 07:26:41;;;;;;;;;;;;;;;;;;4978341;28;19922;-60
2022/11/02 07:29:07;;;;;;;;;;;;;;;;;;4976071;28;19914;-60
2022/11/02 07:31:32;;;;;;;;;;;;;;;;;;4974721;28;19920;-60
2022/11/02 07:33:57;;;;;;;;;;;;;;;;;;4976386;28;19966;-60
2022/11/02 07:36:23;;;;;;;;;;;;;;;;;;4971172;28;19956;-60
2022/11/02 07:38:48;;;;;;;;;;;;;;;;;;4970580;28;19918;-59
2022/11/02 07:41:13;;;;;;;;;;;;;;;;;;4973684;28;20382;-59
2022/11/02 07:43:39;;;;;;;;;;;;;;;;;;4986896;28;19941;-59
2022/11/02 07:46:05;;;;;;;;;;;;;;;;;;4975484;28;19930;-59
2022/11/02 07:48:30;;;;;;;;;;;;;;;;;;4987972;28;19929;-60
2022/11/02 07:50:56;;;;;;;;;;;;;;;;;;4973660;28;19918;-60
2022/11/02 07:53:22;;;;;;;;;;;;;;;;;;4983543;28;20021;-62
2022/11/02 07:55:47;;;;;;;;;;;;;;;;;;4968492;28;20013;-60
2022/11/02 07:58:12;;;;;;;;;;;;;;;;;;4967238;28;19914;-61
2022/11/02 08:00:39;;;;;;;;;;;;;;;;;;4967175;28;19961;-61
2022/11/02 08:03:05;;;;;;;;;;;;;;;;;;4974627;28;19938;-61
2022/11/02 08:05:32;;;;;;;;;;;;;;;;;;4969075;28;19931;-61
2022/11/02 08:08:05;;;;;;;;;;;;;;;;;;4968059;28;19922;-60
2022/11/02 08:10:32;;;;;;;;;;;;;;;;;;4977759;28;20010;-61
2022/11/02 08:12:57;;;;;;;;;;;;;;;;;;4966285;28;19918;-60
2022/11/02 08:15:22;;;;;;;;;;;;;;;;;;4980645;28;19925;-59
2022/11/02 08:17:58;;;;;;;;;;;;;;;;;;5013922;28;20338;-59
2022/11/02 08:20:23;;;;;;;;;;;;;;;;;;4965163;28;19922;-59
2022/11/02 08:22:49;;;;;;;;;;;;;;;;;;4971043;28;19968;-61
2022/11/02 08:25:14;;;;;;;;;;;;;;;;;;4998077;28;19935;-62
2022/11/02 08:27:40;;;;;;;;;;;;;;;;;;4995922;28;19926;-60
2022/11/02 08:30:06;;;;;;;;;;;;;;;;;;4972185;28;20029;-62
2022/11/02 08:32:31;;;;;;;;;;;;;;;;;;4968734;28;20001;-62
2022/11/02 08:34:56;;;;;;;;;;;;;;;;;;4973769;28;19940;-62
2022/11/02 08:37:21;;;;;;;;;;;;;;;;;;4973550;28;19922;-60
2022/11/02 08:39:47;;;;;;;;;;;;;;;;;;4970695;28;19918;-62
2022/11/02 08:42:12;;;;;;;;;;;;;;;;;;4965659;28;19919;-62
2022/11/02 08:44:37;;;;;;;;;;;;;;;;;;4971900;28;20501;-61
2022/11/02 08:47:03;;;;;;;;;;;;;;;;;;4968952;28;19941;-61
2022/11/02 08:49:29;;;;;;;;;;;;;;;;;;4963776;28;19929;-61
2022/11/02 08:51:54;;;;;;;;;;;;;;;;;;4966005;28;19918;-60
2022/11/02 08:54:19;;;;;;;;;;;;;;;;;;4969116;28;20338;-61
2022/11/02 08:56:45;;;;;;;;;;;;;;;;;;4973498;28;19933;-62
2022/11/02 08:59:10;;;;;;;;;;;;;;;;;;4972385;28;20451;-60
2022/11/02 09:01:35;;;;;;;;;;;;;;;;;;4969368;28;19921;-60
2022/11/02 09:04:01;;;;;;;;;;;;;;;;;;4967648;28;20456;-63
2022/11/02 09:06:26;;;;;;;;;;;;;;;;;;4961755;28;20425;-62
2022/11/02 09:08:51;;;;;;;;;;;;;;;;;;4969613;28;19919;-60
2022/11/02 09:11:16;;;;;;;;;;;;;;;;;;4994427;28;19916;-60
2022/11/02 09:13:42;;;;;;;;;;;;;;;;;;4975836;28;19922;-62
2022/11/02 09:16:07;;;;;;;;;;;;;;;;;;4995741;28;19930;-63
2022/11/02 09:18:32;;;;;;;;;;;;;;;;;;4975830;28;19960;-62
2022/11/02 09:21:02;;;;;;;;;;;;;;;;;;5009937;28;20393;-61
2022/11/02 09:23:27;;;;;;;;;;;;;;;;;;4961176;28;20024;-61
2022/11/02 09:25:52;;;;;;;;;;;;;;;;;;4971127;28;20370;-61
2022/11/02 09:28:18;;;;;;;;;;;;;;;;;;4967905;28;19918;-62
2022/11/02 09:30:43;;;;;;;;;;;;;;;;;;4975580;28;19953;-61
2022/11/02 09:33:09;;;;;;;;;;;;;;;;;;4962531;28;19965;-60
2022/11/02 09:35:36;;;;;;;;;;;;;;;;;;4966509;28;19972;-61
2022/11/02 09:38:02;;;;;;;;;;;;;;;;;;4973904;28;19970;-62
2022/11/02 09:40:29;;;;;;;;;;;;;;;;;;4970305;28;19922;-61
2022/11/02 09:42:57;;;;;;;;;;;;;;;;;;4968700;28;19961;-60
2022/11/02 09:45:23;;;;;;;;;;;;;;;;;;4965225;28;20295;-59
2022/11/02 09:47:56;;;;;;;;;;;;;;;;;;4967345;28;19922;-62
2022/11/02 09:50:23;;;;;;;;;;;;;;;;;;4962400;28;20018;-60
2022/11/02 09:53:00;;;;;;;;;;;;;;;;;;4968148;28;20387;-63
2022/11/02 09:55:28;;;;;;;;;;;;;;;;;;4959593;28;20306;-61
2022/11/02 09:58:04;;;;;;;;;;;;;;;;;;4968270;28;19918;-62
2022/11/02 10:00:32;;;;;;;;;;;;;;;;;;4962301;28;19918;-62
2022/11/02 10:03:17;;;;;;;;;;;;;;;;;;4987810;28;19926;-62
2022/11/02 10:06:04;;;;;;;;;;;;;;;;;;4962204;28;20007;-61
2022/11/02 10:08:37;;;;;;;;;;;;;;;;;;4969057;28;19980;-62
2022/11/02 10:11:05;;;;;;;;;;;;;;;;;;4968383;28;20265;-60
2022/11/02 10:13:39;;;;;;;;;;;;;;;;;;4980234;28;19918;-60
2022/11/02 10:16:16;;;;;;;;;;;;;;;;;;4968287;28;19930;-63
2022/11/02 10:18:42;;;;;;;;;;;;;;;;;;4969616;28;19918;-61
2022/11/02 10:21:10;;;;;;;;;;;;;;;;;;4980933;28;19918;-62
2022/11/02 10:23:40;;;;;;;;;;;;;;;;;;4969397;28;19922;-60
2022/11/02 10:26:05;;;;;;;;;;;;;;;;;;4979404;28;19922;-62
2022/11/02 10:28:37;;;;;;;;;;;;;;;;;;4972436;28;19918;-61
2022/11/02 10:31:03;;;;;;;;;;;;;;;;;;4965529;28;20300;-60
2022/11/02 10:33:29;;;;;;;;;;;;;;;;;;4967451;28;19948;-63
2022/11/02 10:35:57;;;;;;;;;;;;;;;;;;4970149;28;20064;-60
2022/11/02 10:38:22;;;;;;;;;;;;;;;;;;4966465;28;20598;-62
2022/11/02 10:40:51;;;;;;;;;;;;;;;;;;4970830;28;19918;-63
2022/11/02 10:43:22;;;;;;;;;;;;;;;;;;4968024;28;20004;-60
2022/11/02 10:46:03;;;;;;;;;;;;;;;;;;4966631;28;20323;-63
2022/11/02 10:48:29;;;;;;;;;;;;;;;;;;4964224;28;19914;-60
2022/11/02 10:51:06;;;;;;;;;;;;;;;;;;4968793;28;19914;-62
2022/11/02 10:53:41;;;;;;;;;;;;;;;;;;4963772;28;19914;-61
2022/11/02 10:56:06;;;;;;;;;;;;;;;;;;4966604;28;19918;-61
2022/11/02 10:58:32;;;;;;;;;;;;;;;;;;4970609;28;20064;-60
2022/11/02 11:01:08;;;;;;;;;;;;;;;;;;4973463;28;20010;-60
2022/11/02 11:03:33;;;;;;;;;;;;;;;;;;4967040;28;20522;-62
2022/11/02 11:06:01;;;;;;;;;;;;;;;;;;4967146;28;19961;-62
2022/11/02 11:08:40;;;;;;;;;;;;;;;;;;4959683;28;20302;-60
2022/11/02 11:11:14;;;;;;;;;;;;;;;;;;4970169;28;19922;-60
2022/11/02 11:13:41;;;;;;;;;;;;;;;;;;4962123;28;19926;-60
2022/11/02 11:16:07;;;;;;;;;;;;;;;;;;4966817;28;20303;-61
2022/11/02 11:18:32;;;;;;;;;;;;;;;;;;4969022;28;19925;-61
2022/11/02 11:20:58;;;;;;;;;;;;;;;;;;4964009;28;19995;-60
2022/11/02 11:23:24;;;;;;;;;;;;;;;;;;4965871;28;19925;-61
2022/11/02 11:25:54;;;;;;;;;;;;;;;;;;4965133;28;19949;-60
2022/11/02 11:28:21;;;;;;;;;;;;;;;;;;4964493;28;19926;-60
2022/11/02 11:30:49;;;;;;;;;;;;;;;;;;4969607;28;19925;-60
2022/11/02 11:33:15;;;;;;;;;;;;;;;;;;4963641;28;19922;-60
2022/11/02 11:35:46;;;;;;;;;;;;;;;;;;4974337;28;20021;-60
2022/11/02 11:38:16;;;;;;;;;;;;;;;;;;4968102;28;19940;-60
2022/11/02 11:40:47;;;;;;;;;;;;;;;;;;4976254;28;19922;-63
2022/11/02 11:43:14;;;;;;;;;;;;;;;;;;4978915;28;19918;-61
2022/11/02 11:45:52;;;;;;;;;;;;;;;;;;4968847;28;19929;-61
2022/11/02 11:48:36;;;;;;;;;;;;;;;;;;4974418;28;19954;-60
2022/11/02 11:51:02;;;;;;;;;;;;;;;;;;4972375;28;19979;-61
2022/11/02 11:53:28;;;;;;;;;;;;;;;;;;4968800;28;20450;-63
2022/11/02 11:55:57;;;;;;;;;;;;;;;;;;4968675;28;20008;-61
2022/11/02 11:58:23;;;;;;;;;;;;;;;;;;4970581;28;19918;-59
2022/11/02 12:01:03;;;;;;;;;;;;;;;;;;4971391;28;19926;-61
2022/11/02 12:03:28;;;;;;;;;;;;;;;;;;4967879;28;19922;-62
2022/11/02 12:05:57;;;;;;;;;;;;;;;;;;4968565;28;19922;-59
2022/11/02 12:08:28;;;;;;;;;;;;;;;;;;4958172;28;20291;-61
2022/11/02 12:11:02;;;;;;;;;;;;;;;;;;4956867;28;19925;-59
2022/11/02 12:13:46;;;;;;;;;;;;;;;;;;4952439;28;19918;-59
2022/11/02 12:16:11;;;;;;;;;;;;;;;;;;4965546;28;19925;-58
2022/11/02 12:18:50;;;;;;;;;;;;;;;;;;4963357;28;19922;-60
2022/11/02 12:21:15;;;;;;;;;;;;;;;;;;4963985;28;20426;-60
2022/11/02 12:23:47;;;;;;;;;;;;;;;;;;4968367;28;20010;-59
2022/11/02 12:26:31;;;;;;;;;;;;;;;;;;4965573;28;19922;-59
2022/11/02 12:29:05;;;;;;;;;;;;;;;;;;4968443;28;19922;-59
2022/11/02 12:31:30;;;;;;;;;;;;;;;;;;4966786;28;19926;-61
2022/11/02 12:33:55;;;;;;;;;;;;;;;;;;4974449;28;19918;-61
2022/11/02 12:36:38;;;;;;;;;;;;;;;;;;4971720;28;19925;-61
2022/11/02 12:39:07;;;;;;;;;;;;;;;;;;4977116;28;19924;-58
2022/11/02 12:41:51;;;;;;;;;;;;;;;;;;4966403;28;19918;-60
2022/11/02 12:44:17;;;;;;;;;;;;;;;;;;4961219;28;19941;-62
2022/11/02 12:46:45;;;;;;;;;;;;;;;;;;4982012;28;20386;-60
2022/11/02 12:49:28;;;;;;;;;;;;;;;;;;4966827;28;20021;-63
2022/11/02 12:52:01;;;;;;;;;;;;;;;;;;4971438;28;19926;-62
2022/11/02 12:54:53;;;;;;;;;;;;;;;;;;4971646;28;19924;-60
2022/11/02 12:57:20;;;;;;;;;;;;;;;;;;4968949;28;19918;-64
2022/11/02 12:59:48;;;;;;;;;;;;;;;;;;4970675;28;19922;-63
2022/11/02 13:02:25;;;;;;;;;;;;;;;;;;4967427;28;19970;-68
2022/11/02 13:04:50;;;;;;;;;;;;;;;;;;5002554;28;19926;-70
2022/11/02 13:07:20;;;;;;;;;;;;;;;;;;5017012;28;19926;-56
2022/11/02 13:10:18;;;;;;;;;;;;;;;;;;4965664;28;19922;-58
2022/11/02 13:12:44;;;;;;;;;;;;;;;;;;4986807;28;19918;-58
2022/11/02 13:15:15;;;;;;;;;;;;;;;;;;4963583;28;19918;-59
2022/11/02 13:17:44;;;;;;;;;;;;;;;;;;4970522;28;19918;-58
2022/11/02 13:20:16;;;;;;;;;;;;;;;;;;4969376;28;20526;-59
2022/11/02 13:22:42;;;;;;;;;;;;;;;;;;4963756;28;20001;-57
2022/11/02 13:25:22;;;;;;;;;;;;;;;;;;4967767;28;19926;-57
2022/11/02 13:27:50;;;;;;;;;;;;;;;;;;4972179;28;20004;-57
2022/11/02 13:30:16;;;;;;;;;;;;;;;;;;4967623;28;19992;-58
2022/11/02 13:32:48;;;;;;;;;;;;;;;;;;4968578;28;20414;-58
2022/11/02 13:35:23;;;;;;;;;;;;;;;;;;4974828;28;20058;-57
2022/11/02 13:37:51;;;;;;;;;;;;;;;;;;4970531;28;19957;-57
2022/11/02 13:40:26;;;;;;;;;;;;;;;;;;4966596;28;19918;-59
2022/11/02 13:42:51;;;;;;;;;;;;;;;;;;4965641;28;19962;-58
2022/11/02 13:45:19;;;;;;;;;;;;;;;;;;4966983;28;19967;-57
2022/11/02 13:47:50;;;;;;;;;;;;;;;;;;4971596;28;20493;-57
2022/11/02 13:50:18;;;;;;;;;;;;;;;;;;4969067;28;19922;-59
2022/11/02 13:52:46;;;;;;;;;;;;;;;;;;4963469;28;20387;-64
2022/11/02 13:55:17;;;;;;;;;;;;;;;;;;4963385;28;19918;-67
2022/11/02 13:57:45;;;;;;;;;;;;;;;;;;4964211;28;19918;-66
2022/11/02 14:00:22;;;;;;;;;;;;;;;;;;4964179;28;19918;-63
2022/11/02 14:02:50;;;;;;;;;;;;;;;;;;4972923;28;19964;-63
2022/11/02 14:05:41;;;;;;;;;;;;;;;;;;4976806;28;19923;-61
2022/11/02 14:08:09;;;;;;;;;;;;;;;;;;4970365;28;20411;-60
2022/11/02 14:10:38;;;;;;;;;;;;;;;;;;4972356;28;19914;-60
2022/11/02 14:13:04;;;;;;;;;;;;;;;;;;4969296;28;20296;-60
2022/11/02 14:15:29;;;;;;;;;;;;;;;;;;4980029;28;19925;-60
2022/11/02 14:18:01;;;;;;;;;;;;;;;;;;4982925;28;19922;-60
2022/11/02 14:20:45;;;;;;;;;;;;;;;;;;4975354;28;20387;-60
2022/11/02 14:25:48;;;;;;;;;;;;;;;;;;4967858;28;19923;-60
2022/11/02 14:28:22;;;;;;;;;;;;;;;;;;;;;
2022/11/02 14:30:47;;;;;;;;;;;;;;;;;;4962477;28;19973;-60
2022/11/02 14:33:19;;;;;;;;;;;;;;;;;;4976905;28;19972;-60
2022/11/02 14:35:51;;;;;;;;;;;;;;;;;;5053051;28;19964;-60
2022/11/02 14:38:22;;;;;;;;;;;;;;;;;;4969012;28;19918;-59
2022/11/02 14:40:50;;;;;;;;;;;;;;;;;;4970466;28;19960;-60
2022/11/02 14:43:34;;;;;;;;;;;;;;;;;;4972286;28;19923;-60
2022/11/02 14:46:06;;;;;;;;;;;;;;;;;;4968335;28;19928;-59
2022/11/02 14:48:41;;;;;;;;;;;;;;;;;;4987827;28;19964;-60
2022/11/02 14:51:13;;;;;;;;;;;;;;;;;;4962956;28;19918;-59
2022/11/02 14:53:38;;;;;;;;;;;;;;;;;;4969401;28;19960;-59
2022/11/02 14:56:04;;;;;;;;;;;;;;;;;;4968347;28;19918;-60
2022/11/02 14:58:34;;;;;;;;;;;;;;;;;;4966830;28;19986;-59
2022/11/02 15:01:01;;;;;;;;;;;;;;;;;;4968609;28;19925;-61
2022/11/02 15:03:27;;;;;;;;;;;;;;;;;;4960189;28;19925;-59
2022/11/02 15:06:01;;;;;;;;;;;;;;;;;;4959758;28;19922;-60
2022/11/02 15:08:30;;;;;;;;;;;;;;;;;;4964177;28;19941;-61
2022/11/02 15:10:55;;;;;;;;;;;;;;;;;;4965315;28;19987;-60
2022/11/02 15:13:21;;;;;;;;;;;;;;;;;;4970234;28;19999;-61
2022/11/02 15:15:49;;;;;;;;;;;;;;;;;;4969711;28;20524;-59
2022/11/02 15:18:22;;;;;;;;;;;;;;;;;;4963943;28;20051;-60
2022/11/02 15:21:08;;;;;;;;;;;;;;;;;;4962876;28;20487;-61
2022/11/02 15:23:40;;;;;;;;;;;;;;;;;;4962011;28;19925;-62
2022/11/02 15:26:10;;;;;;;;;;;;;;;;;;5001708;28;19938;-61
2022/11/02 15:28:36;;;;;;;;;;;;;;;;;;4975428;28;20100;-60
2022/11/02 15:31:06;;;;;;;;;;;;;;;;;;4975297;28;20371;-59
2022/11/02 15:33:34;;;;;;;;;;;;;;;;;;4965183;28;19918;-60
2022/11/02 15:36:00;;;;;;;;;;;;;;;;;;4969497;28;20021;-59
2022/11/02 15:38:27;;;;;;;;;;;;;;;;;;4969835;28;20398;-61
2022/11/02 15:41:02;;;;;;;;;;;;;;;;;;4960360;28;20001;-59
2022/11/02 15:43:38;;;;;;;;;;;;;;;;;;4964277;28;19940;-59
2022/11/02 15:46:04;;;;;;;;;;;;;;;;;;4964120;28;20500;-60
2022/11/02 15:48:38;;;;;;;;;;;;;;;;;;4962483;28;19924;-61
2022/11/02 15:51:03;;;;;;;;;;;;;;;;;;4968180;28;20387;-59
2022/11/02 15:53:35;;;;;;;;;;;;;;;;;;4967770;28;19918;-59
2022/11/02 15:56:03;;;;;;;;;;;;;;;;;;4964292;28;19918;-59
2022/11/02 15:58:47;;;;;;;;;;;;;;;;;;4958472;28;19926;-59
2022/11/02 16:01:25;;;;;;;;;;;;;;;;;;4961402;28;19925;-59
2022/11/02 16:04:01;;;;;;;;;;;;;;;;;;4962701;28;20400;-58
2022/11/02 16:06:48;;;;;;;;;;;;;;;;;;4972576;28;19926;-59
2022/11/02 16:09:33;;;;;;;;;;;;;;;;;;4974280;28;19922;-61
2022/11/02 16:12:02;;;;;;;;;;;;;;;;;;4972714;28;19925;-59
2022/11/02 16:14:31;;;;;;;;;;;;;;;;;;4982006;28;20403;-60
2022/11/02 16:16:56;;;;;;;;;;;;;;;;;;4977522;28;19922;-60
2022/11/02 16:19:21;;;;;;;;;;;;;;;;;;4967928;28;20335;-61
2022/11/02 16:21:47;;;;;;;;;;;;;;;;;;4964289;28;19922;-59
2022/11/02 16:24:13;;;;;;;;;;;;;;;;;;4966491;28;19918;-58
2022/11/02 16:26:40;;;;;;;;;;;;;;;;;;4967720;28;19922;-60
2022/11/02 16:29:07;;;;;;;;;;;;;;;;;;4968699;28;19918;-60
2022/11/02 16:31:32;;;;;;;;;;;;;;;;;;4966167;28;19918;-59
2022/11/02 16:34:02;;;;;;;;;;;;;;;;;;4963903;28;19918;-59
2022/11/02 16:36:29;;;;;;;;;;;;;;;;;;4957524;28;19925;-59
2022/11/02 16:39:01;;;;;;;;;;;;;;;;;;4965905;28;19918;-60
2022/11/02 16:41:30;;;;;;;;;;;;;;;;;;4965490;28;19918;-60
2022/11/02 16:44:16;;;;;;;;;;;;;;;;;;4960034;28;19950;-58
2022/11/02 16:46:47;;;;;;;;;;;;;;;;;;4958361;28;19976;-59
2022/11/02 16:49:17;;;;;;;;;;;;;;;;;;4962330;28;19919;-59
2022/11/02 16:51:51;;;;;;;;;;;;;;;;;;4966613;28;19925;-60
2022/11/02 16:54:17;;;;;;;;;;;;;;;;;;4965612;28;19918;-59
2022/11/02 16:56:46;;;;;;;;;;;;;;;;;;4966392;28;20438;-59
2022/11/02 16:59:13;;;;;;;;;;;;;;;;;;4967500;28;19928;-59
2022/11/02 17:01:39;;;;;;;;;;;;;;;;;;4962148;28;20319;-59
2022/11/02 17:04:13;;;;;;;;;;;;;;;;;;4961973;28;19918;-60
2022/11/02 17:06:42;;;;;;;;;;;;;;;;;;4966721;28;19929;-59
2022/11/02 17:09:42;;;;;;;;;;;;;;;;;;4962926;28;19918;-59
2022/11/02 17:12:14;;;;;;;;;;;;;;;;;;4920189;29;19989;-58